LJPZ/POW METAR and TAF weather

Enter ICAO airport designator
Station Type Date Time Source
LJPZ METAR 2019/11/14 04:00 UTC NOAA

LJPZ 140400Z AUTO VRB03KT 9999 NSC 07/06 Q1007


Station Type Date Time Source
LJPZ Decoded METAR 2019/11/14 04:00 UTC NOAA

Portoroz, Slovenia (LJPZ) 45-31N 013-34E
Nov 13, 2019 - 11:00 PM EST / 2019.11.14 0400 UTC
Wind: Variable at 3 MPH (3 KT):0
Visibility: greater than 7 mile(s):0
Temperature: 44 F (7 C)
Dew Point: 42 F (6 C)
Relative Humidity: 93%
Pressure (altimeter): 29.74 in. Hg (1007 hPa)
ob: LJPZ 140400Z AUTO VRB03KT 9999 NSC 07/06 Q1007
cycle: 4

Station Type Date Time Source
LJPZ TAF 2008/06/02 05:30 UTC NOAA

TAF TAF LJPZ 020530Z 021615 VRB02KT 6000 NSC
BECMG 0911 30005KT 9999 FEW040

Example: see airport list